Time,TemperatureF,DewpointF,PressureIn,WindDirection,WindDirectionDegrees,WindSpeedMPH,WindSpeedGustMPH,Humidity,HourlyPrecipIn,Conditions,Clouds,dailyrainin,SoftwareType,DateUTC
2013-08-06 00:01:00,75.6,74.3,29.99,NE,45,0.0,0.0,96,0.00,,,0.21,meteohub,2013-08-06 04:01:00,
2013-08-06 00:02:00,75.4,74.1,29.99,NE,45,0.0,0.0,96,0.00,,,0.21,meteohub,2013-08-06 04:02:00,
2013-08-06 00:03:00,75.4,74.1,29.99,NE,45,0.0,0.0,96,0.00,,,0.21,meteohub,2013-08-06 04:03:00,
2013-08-06 00:07:00,75.4,74.1,29.99,NE,45,0.0,0.0,96,0.00,,,0.00,meteohub,2013-08-06 04:07:00,
2013-08-06 00:09:00,75.4,74.1,29.99,NE,45,0.0,0.0,96,0.00,,,0.00,meteohub,2013-08-06 04:09:00,
2013-08-06 00:14:00,75.4,74.1,29.99,NE,45,0.0,0.0,96,0.00,,,0.00,meteohub,2013-08-06 04:14:00,
2013-08-06 00:19:00,75.4,74.1,29.99,North,0,0.0,0.0,96,0.00,,,0.00,meteohub,2013-08-06 04:19:00,
2013-08-06 00:24:00,75.4,74.1,29.98,NW,315,0.0,0.0,96,0.00,,,0.00,meteohub,2013-08-06 04:24:00,
2013-08-06 00:30:00,75.4,74.1,29.98,SW,225,0.0,0.0,96,0.00,,,0.00,meteohub,2013-08-06 04:30:00,
2013-08-06 00:35:00,75.2,73.9,29.98,SW,225,0.0,0.0,96,0.00,,,0.00,meteohub,2013-08-06 04:35:00,
2013-08-06 00:40:00,75.2,73.9,29.97,SW,225,0.0,0.0,96,0.00,,,0.00,meteohub,2013-08-06 04:40:00,
2013-08-06 00:45:00,75.2,73.9,29.97,SW,225,0.0,0.0,96,0.00,,,0.00,meteohub,2013-08-06 04:45:00,
2013-08-06 00:50:00,75.0,74.1,29.97,SW,225,0.0,0.0,97,0.00,,,0.00,meteohub,2013-08-06 04:50:00,
2013-08-06 00:55:00,75.0,74.5,29.98,SW,225,0.0,0.0,98,0.00,,,0.00,meteohub,2013-08-06 04:55:00,
2013-08-06 01:00:00,74.8,74.3,29.97,SW,225,0.0,0.0,98,0.00,,,0.00,meteohub,2013-08-06 05:00:00,
2013-08-06 01:05:00,74.8,74.3,29.96,SW,225,0.0,0.0,98,0.00,,,0.00,meteohub,2013-08-06 05:05:00,
2013-08-06 01:10:00,74.7,74.1,29.96,West,270,0.0,0.0,98,0.00,,,0.00,meteohub,2013-08-06 05:10:00,
2013-08-06 01:15:00,74.7,74.1,29.96,SE,135,0.0,0.0,98,0.00,,,0.00,meteohub,2013-08-06 05:15:00,
2013-08-06 01:20:00,74.7,74.1,29.96,SE,135,0.0,0.0,98,0.00,,,0.00,meteohub,2013-08-06 05:20:00,
2013-08-06 01:25:00,74.8,74.3,29.95,East,90,0.0,0.0,98,0.00,,,0.00,meteohub,2013-08-06 05:25:00,
2013-08-06 01:30:00,74.7,74.1,29.95,East,90,0.0,0.0,98,0.00,,,0.00,meteohub,2013-08-06 05:30:00,
2013-08-06 01:35:00,74.8,74.3,29.95,East,90,0.0,0.0,98,0.00,,,0.00,meteohub,2013-08-06 05:35:00,
2013-08-06 01:40:00,74.8,74.3,29.95,East,90,0.0,0.0,98,0.00,,,0.00,meteohub,2013-08-06 05:40:00,
2013-08-06 01:45:00,74.8,74.3,29.94,East,90,0.0,0.0,98,0.00,,,0.00,meteohub,2013-08-06 05:45:00,
2013-08-06 01:50:00,74.8,74.3,29.94,North,0,0.0,0.0,98,0.00,,,0.00,meteohub,2013-08-06 05:50:00,
2013-08-06 01:55:00,74.8,74.3,29.94,North,0,0.0,0.0,98,0.00,,,0.00,meteohub,2013-08-06 05:55:00,
2013-08-06 02:00:00,74.8,74.3,29.94,North,0,0.0,0.0,98,0.00,,,0.00,meteohub,2013-08-06 06:00:00,
2013-08-06 02:05:00,74.8,74.3,29.94,North,0,0.0,0.0,98,0.00,,,0.00,meteohub,2013-08-06 06:05:00,
2013-08-06 02:10:00,74.8,74.3,29.94,North,0,0.0,0.0,98,0.00,,,0.00,meteohub,2013-08-06 06:10:00,
2013-08-06 02:16:00,74.8,74.3,29.94,North,0,0.0,0.0,98,0.00,,,0.00,meteohub,2013-08-06 06:16:00,
2013-08-06 02:21:00,74.8,74.3,29.94,North,0,0.0,0.0,98,0.00,,,0.00,meteohub,2013-08-06 06:21:00,
2013-08-06 02:26:00,74.8,74.3,29.93,North,0,0.0,0.0,98,0.00,,,0.00,meteohub,2013-08-06 06:26:00,
2013-08-06 02:31:00,74.8,74.3,29.92,North,0,0.0,0.0,98,0.00,,,0.00,meteohub,2013-08-06 06:31:00,
2013-08-06 02:36:00,74.8,74.3,29.92,North,0,0.0,0.0,98,0.00,,,0.00,meteohub,2013-08-06 06:36:00,
2013-08-06 02:41:00,74.8,74.3,29.92,North,0,0.0,0.0,98,0.00,,,0.00,meteohub,2013-08-06 06:41:00,
2013-08-06 02:46:00,74.7,74.1,29.92,SE,135,0.0,0.0,98,0.00,,,0.00,meteohub,2013-08-06 06:46:00,
2013-08-06 02:51:00,74.7,74.1,29.93,SE,135,0.0,0.0,98,0.00,,,0.00,meteohub,2013-08-06 06:51:00,
2013-08-06 02:56:00,74.8,74.3,29.92,SE,135,0.0,0.0,98,0.00,,,0.00,meteohub,2013-08-06 06:56:00,
2013-08-06 03:01:00,74.8,74.3,29.92,SE,135,0.0,0.0,98,0.00,,,0.00,meteohub,2013-08-06 07:01:00,
2013-08-06 03:06:00,74.8,74.3,29.92,SE,135,0.0,0.0,98,0.00,,,0.00,meteohub,2013-08-06 07:06:00,
2013-08-06 03:11:00,74.8,74.3,29.91,SE,135,0.0,0.0,98,0.00,,,0.00,meteohub,2013-08-06 07:11:00,
2013-08-06 03:16:00,74.8,74.3,29.91,SE,135,0.0,0.0,98,0.00,,,0.00,meteohub,2013-08-06 07:16:00,
2013-08-06 03:21:00,74.8,74.3,29.91,SE,135,0.0,0.0,98,0.00,,,0.00,meteohub,2013-08-06 07:21:00,
2013-08-06 03:26:00,74.8,74.5,29.91,NW,315,0.0,0.0,99,0.00,,,0.00,meteohub,2013-08-06 07:26:00,
2013-08-06 03:31:00,74.8,74.5,29.91,NE,45,0.0,0.0,99,0.00,,,0.00,meteohub,2013-08-06 07:31:00,
2013-08-06 03:36:00,74.8,74.5,29.91,NE,45,0.0,0.0,99,0.00,,,0.00,meteohub,2013-08-06 07:36:00,
2013-08-06 03:41:00,74.8,74.5,29.91,NE,45,0.0,0.0,99,0.00,,,0.00,meteohub,2013-08-06 07:41:00,
2013-08-06 03:46:00,74.8,74.5,29.91,NE,45,0.0,0.0,99,0.00,,,0.00,meteohub,2013-08-06 07:46:00,
2013-08-06 03:51:00,74.7,74.3,29.91,West,270,0.0,0.0,99,0.00,,,0.00,meteohub,2013-08-06 07:51:00,
2013-08-06 03:56:00,74.7,74.3,29.91,West,270,0.0,0.0,99,0.00,,,0.00,meteohub,2013-08-06 07:56:00,
2013-08-06 04:01:00,74.7,74.3,29.92,SE,135,0.0,0.0,99,0.00,,,0.00,meteohub,2013-08-06 08:01:00,
2013-08-06 04:07:00,74.7,74.3,29.91,SE,135,0.0,0.0,99,0.00,,,0.00,meteohub,2013-08-06 08:07:00,
2013-08-06 04:12:00,74.7,74.3,29.92,SE,135,0.0,0.0,99,0.00,,,0.00,meteohub,2013-08-06 08:12:00,
2013-08-06 04:17:00,74.7,74.3,29.92,South,180,0.0,0.0,99,0.00,,,0.00,meteohub,2013-08-06 08:17:00,
2013-08-06 04:22:00,74.5,74.1,29.92,South,180,0.0,0.0,99,0.00,,,0.00,meteohub,2013-08-06 08:22:00,
2013-08-06 04:27:00,74.5,74.1,29.92,South,180,0.0,0.0,99,0.00,,,0.00,meteohub,2013-08-06 08:27:00,
2013-08-06 04:32:00,74.5,74.1,29.92,South,180,0.0,0.0,99,0.00,,,0.00,meteohub,2013-08-06 08:32:00,
2013-08-06 04:37:00,74.5,74.1,29.92,South,180,0.0,0.0,99,0.00,,,0.00,meteohub,2013-08-06 08:37:00,
2013-08-06 04:42:00,74.5,74.1,29.93,South,180,0.0,0.0,99,0.00,,,0.00,meteohub,2013-08-06 08:42:00,
2013-08-06 04:47:00,74.3,73.9,29.92,South,180,0.0,0.0,99,0.00,,,0.00,meteohub,2013-08-06 08:47:00,
2013-08-06 04:52:00,74.3,73.9,29.92,South,180,0.0,0.0,99,0.00,,,0.00,meteohub,2013-08-06 08:52:00,
2013-08-06 04:57:00,74.3,73.9,29.92,South,180,0.0,0.0,99,0.00,,,0.00,meteohub,2013-08-06 08:57:00,
2013-08-06 05:02:00,74.5,74.1,29.92,South,180,0.0,0.0,99,0.00,,,0.00,meteohub,2013-08-06 09:02:00,
2013-08-06 05:07:00,74.5,74.1,29.92,South,180,0.0,0.0,99,0.00,,,0.00,meteohub,2013-08-06 09:07:00,
2013-08-06 05:12:00,74.5,74.1,29.92,South,180,0.0,0.0,99,0.00,,,0.00,meteohub,2013-08-06 09:12:00,
2013-08-06 05:17:00,74.5,74.1,29.92,South,180,0.0,0.0,99,0.00,,,0.00,meteohub,2013-08-06 09:17:00,
2013-08-06 05:22:00,74.3,73.9,29.93,SE,135,0.0,0.0,99,0.00,,,0.00,meteohub,2013-08-06 09:22:00,
2013-08-06 05:27:00,74.3,73.9,29.93,East,90,0.0,0.0,99,0.00,,,0.00,meteohub,2013-08-06 09:27:00,
2013-08-06 05:32:00,74.5,74.1,29.93,East,90,0.0,0.0,99,0.00,,,0.00,meteohub,2013-08-06 09:32:00,
2013-08-06 05:37:00,74.8,74.5,29.93,East,90,0.0,0.0,99,0.00,,,0.00,meteohub,2013-08-06 09:37:00,
2013-08-06 05:42:00,74.8,74.5,29.93,West,270,0.0,0.0,99,0.00,,,0.00,meteohub,2013-08-06 09:42:00,
2013-08-06 05:47:00,75.0,74.7,29.93,West,270,0.0,0.0,99,0.00,,,0.00,meteohub,2013-08-06 09:47:00,
2013-08-06 05:53:00,75.0,74.7,29.93,NE,45,0.0,0.0,99,0.00,,,0.00,meteohub,2013-08-06 09:53:00,
2013-08-06 05:58:00,75.0,74.7,29.93,NE,45,0.0,0.0,99,0.00,,,0.00,meteohub,2013-08-06 09:58:00,
2013-08-06 06:03:00,75.0,74.7,29.93,NE,45,0.0,0.0,99,0.00,,,0.00,meteohub,2013-08-06 10:03:00,
2013-08-06 06:08:00,74.8,74.5,29.93,NE,45,0.0,0.0,99,0.00,,,0.00,meteohub,2013-08-06 10:08:00,
2013-08-06 06:13:00,74.8,74.5,29.94,NE,45,0.0,0.0,99,0.00,,,0.00,meteohub,2013-08-06 10:13:00,
2013-08-06 06:18:00,74.7,74.3,29.94,NE,45,0.0,0.0,99,0.00,,,0.00,meteohub,2013-08-06 10:18:00,
2013-08-06 06:23:00,74.8,74.5,29.94,NE,45,0.0,0.0,99,0.00,,,0.00,meteohub,2013-08-06 10:23:00,
2013-08-06 06:28:00,74.7,74.3,29.94,NE,45,0.0,0.0,99,0.00,,,0.00,meteohub,2013-08-06 10:28:00,
2013-08-06 06:33:00,74.7,74.3,29.94,NE,45,0.0,0.0,99,0.00,,,0.00,meteohub,2013-08-06 10:33:00,
2013-08-06 06:38:00,74.7,74.3,29.94,NE,45,0.0,0.0,99,0.00,,,0.00,meteohub,2013-08-06 10:38:00,
2013-08-06 06:43:00,74.7,74.3,29.94,NE,45,0.0,0.0,99,0.00,,,0.00,meteohub,2013-08-06 10:43:00,
2013-08-06 06:48:00,74.7,74.3,29.94,NE,45,0.0,0.0,99,0.00,,,0.00,meteohub,2013-08-06 10:48:00,
2013-08-06 06:53:00,74.7,74.3,29.94,SE,135,0.0,0.0,99,0.00,,,0.00,meteohub,2013-08-06 10:53:00,
2013-08-06 06:58:00,74.7,74.3,29.95,South,180,0.0,0.0,99,0.00,,,0.00,meteohub,2013-08-06 10:58:00,
2013-08-06 07:03:00,74.8,74.5,29.95,SE,135,0.0,0.0,99,0.00,,,0.00,meteohub,2013-08-06 11:03:00,
2013-08-06 07:08:00,74.8,74.5,29.95,SE,135,0.0,0.0,99,0.00,,,0.00,meteohub,2013-08-06 11:08:00,
2013-08-06 07:13:00,74.8,74.5,29.95,SE,135,0.0,0.0,99,0.00,,,0.00,meteohub,2013-08-06 11:13:00,
2013-08-06 07:18:00,74.8,74.5,29.95,SE,135,0.0,0.0,99,0.00,,,0.00,meteohub,2013-08-06 11:18:00,
2013-08-06 07:24:00,74.8,74.5,29.95,SE,135,0.0,0.0,99,0.00,,,0.00,meteohub,2013-08-06 11:24:00,
2013-08-06 07:29:00,74.8,74.5,29.95,SE,135,0.0,0.0,99,0.00,,,0.00,meteohub,2013-08-06 11:29:00,
2013-08-06 07:34:00,75.0,74.7,29.96,SE,135,0.0,0.0,99,0.00,,,0.00,meteohub,2013-08-06 11:34:00,
2013-08-06 07:39:00,75.0,74.7,29.96,SE,135,0.0,0.0,99,0.00,,,0.00,meteohub,2013-08-06 11:39:00,
2013-08-06 07:44:00,75.2,74.7,29.96,SE,135,0.0,0.0,98,0.00,,,0.00,meteohub,2013-08-06 11:44:00,
2013-08-06 07:49:00,75.4,74.8,29.96,SE,135,0.0,0.0,98,0.00,,,0.00,meteohub,2013-08-06 11:49:00,
2013-08-06 07:54:00,75.4,75.0,29.96,SE,135,0.0,0.0,99,0.00,,,0.00,meteohub,2013-08-06 11:54:00,
2013-08-06 07:59:00,75.6,75.2,29.96,SE,135,0.0,0.0,99,0.00,,,0.00,meteohub,2013-08-06 11:59:00,
2013-08-06 08:04:00,75.7,75.4,29.96,East,90,0.0,0.0,99,0.00,,,0.00,meteohub,2013-08-06 12:04:00,
2013-08-06 08:09:00,75.9,75.6,29.96,East,90,0.0,0.0,99,0.00,,,0.00,meteohub,2013-08-06 12:09:00,
2013-08-06 08:14:00,76.1,75.7,29.96,NE,45,0.0,0.0,99,0.00,,,0.00,meteohub,2013-08-06 12:14:00,
2013-08-06 08:19:00,76.3,75.9,29.96,East,90,1.0,1.0,99,0.00,,,0.00,meteohub,2013-08-06 12:19:00,
2013-08-06 08:24:00,76.5,76.1,29.96,East,90,1.0,2.0,99,0.00,,,0.00,meteohub,2013-08-06 12:24:00,
2013-08-06 08:29:00,76.5,76.1,29.96,SE,135,2.0,2.0,99,0.00,,,0.00,meteohub,2013-08-06 12:29:00,
2013-08-06 08:34:00,76.6,76.3,29.96,East,90,1.0,3.0,99,0.00,,,0.00,meteohub,2013-08-06 12:34:00,
2013-08-06 08:39:00,76.6,76.3,29.96,SSE,158,2.0,3.0,99,0.00,,,0.00,meteohub,2013-08-06 12:39:00,
2013-08-06 08:45:00,76.8,76.5,29.96,West,270,2.0,3.0,99,0.00,,,0.00,meteohub,2013-08-06 12:45:00,
2013-08-06 08:50:00,77.0,76.5,29.96,NW,315,1.0,2.0,98,0.00,,,0.00,meteohub,2013-08-06 12:50:00,
2013-08-06 08:55:00,77.4,76.8,29.96,SE,135,0.0,2.0,98,0.00,,,0.00,meteohub,2013-08-06 12:55:00,
2013-08-06 09:00:00,77.4,76.8,29.96,SW,225,2.0,2.0,98,0.00,,,0.00,meteohub,2013-08-06 13:00:00,
2013-08-06 09:05:00,77.7,77.2,29.96,SE,135,0.0,3.0,98,0.00,,,0.00,meteohub,2013-08-06 13:05:00,
2013-08-06 09:10:00,78.1,77.5,29.96,South,180,0.0,3.0,98,0.00,,,0.00,meteohub,2013-08-06 13:10:00,
2013-08-06 09:15:00,78.4,77.5,29.97,South,180,3.0,3.0,97,0.00,,,0.00,meteohub,2013-08-06 13:15:00,
2013-08-06 09:20:00,78.8,77.5,29.97,SW,225,0.0,3.0,96,0.00,,,0.00,meteohub,2013-08-06 13:20:00,
2013-08-06 09:29:00,79.5,77.9,29.97,SE,135,2.0,3.0,95,0.00,,,0.00,meteohub,2013-08-06 13:29:00,
2013-08-06 09:42:00,80.6,77.4,29.98,South,180,0.0,2.0,90,0.01,,,0.01,meteohub,2013-08-06 13:42:00,
2013-08-06 09:47:00,81.1,77.2,29.98,NW,315,0.0,2.0,88,0.01,,,0.01,meteohub,2013-08-06 13:47:00,
2013-08-06 09:52:00,81.7,77.4,29.98,SE,135,0.0,2.0,87,0.01,,,0.01,meteohub,2013-08-06 13:52:00,
2013-08-06 09:57:00,82.4,78.1,29.98,SW,225,0.0,2.0,87,0.01,,,0.01,meteohub,2013-08-06 13:57:00,
2013-08-06 10:02:00,82.9,78.3,29.98,North,0,0.0,2.0,86,0.01,,,0.01,meteohub,2013-08-06 14:02:00,
2013-08-06 10:07:00,83.7,78.3,29.98,North,0,1.0,2.0,84,0.01,,,0.01,meteohub,2013-08-06 14:07:00,
2013-08-06 10:42:00,86.7,77.4,29.99,East,90,1.0,3.0,74,0.00,,,0.01,meteohub,2013-08-06 14:42:00,
2013-08-06 10:54:00,87.3,77.5,29.99,North,0,2.0,3.0,73,0.00,,,0.01,meteohub,2013-08-06 14:54:00,
2013-08-06 10:59:00,87.8,77.7,29.98,East,90,3.0,3.0,72,0.00,,,0.01,meteohub,2013-08-06 14:59:00,
2013-08-06 11:04:00,88.0,77.0,29.99,East,90,0.0,4.0,70,0.00,,,0.01,meteohub,2013-08-06 15:04:00,
2013-08-06 11:09:00,88.7,78.1,29.99,North,0,1.0,4.0,71,0.00,,,0.01,meteohub,2013-08-06 15:09:00,
2013-08-06 11:14:00,89.1,77.2,29.99,North,0,3.0,3.0,68,0.00,,,0.01,meteohub,2013-08-06 15:14:00,
2013-08-06 11:19:00,89.2,76.8,29.99,East,90,1.0,2.0,67,0.00,,,0.01,meteohub,2013-08-06 15:19:00,
2013-08-06 11:24:00,89.4,77.5,29.98,East,90,2.0,3.0,68,0.00,,,0.01,meteohub,2013-08-06 15:24:00,
2013-08-06 11:29:00,89.4,77.0,29.98,SSE,158,2.0,3.0,67,0.00,,,0.01,meteohub,2013-08-06 15:29:00,
2013-08-06 11:34:00,89.2,77.4,29.98,NE,45,4.0,4.0,68,0.00,,,0.01,meteohub,2013-08-06 15:34:00,
2013-08-06 11:39:00,89.8,76.8,29.98,North,0,3.0,4.0,66,0.00,,,0.01,meteohub,2013-08-06 15:39:00,
2013-08-06 11:44:00,90.1,77.2,29.98,North,0,1.0,4.0,66,0.00,,,0.01,meteohub,2013-08-06 15:44:00,
2013-08-06 11:49:00,90.5,76.6,29.98,East,90,2.0,4.0,64,0.00,,,0.01,meteohub,2013-08-06 15:49:00,
2013-08-06 11:55:00,90.5,77.2,29.98,SE,135,0.0,4.0,65,0.00,,,0.01,meteohub,2013-08-06 15:55:00,
2013-08-06 12:00:00,90.9,77.0,29.98,SW,225,2.0,4.0,64,0.00,,,0.01,meteohub,2013-08-06 16:00:00,
2013-08-06 12:05:00,90.1,76.8,29.98,North,0,2.0,4.0,65,0.00,,,0.01,meteohub,2013-08-06 16:05:00,
2013-08-06 12:10:00,90.1,76.8,29.98,South,180,3.0,3.0,65,0.00,,,0.01,meteohub,2013-08-06 16:10:00,
2013-08-06 12:15:00,90.1,76.8,29.97,North,0,1.0,4.0,65,0.00,,,0.01,meteohub,2013-08-06 16:15:00,
2013-08-06 12:20:00,90.5,77.2,29.97,North,0,0.0,4.0,65,0.00,,,0.01,meteohub,2013-08-06 16:20:00,
2013-08-06 12:25:00,90.9,76.5,29.97,SW,225,2.0,3.0,63,0.00,,,0.01,meteohub,2013-08-06 16:25:00,
2013-08-06 12:30:00,90.1,75.9,29.97,East,90,0.0,3.0,63,0.00,,,0.01,meteohub,2013-08-06 16:30:00,
2013-08-06 12:35:00,90.3,77.0,29.97,West,270,2.0,3.0,65,0.00,,,0.01,meteohub,2013-08-06 16:35:00,
2013-08-06 12:40:00,90.3,76.5,29.96,East,90,1.0,2.0,64,0.00,,,0.01,meteohub,2013-08-06 16:40:00,
2013-08-06 12:45:00,90.3,77.0,29.96,South,180,2.0,3.0,65,0.00,,,0.01,meteohub,2013-08-06 16:45:00,
2013-08-06 12:50:00,90.7,76.3,29.96,North,0,2.0,4.0,63,0.00,,,0.01,meteohub,2013-08-06 16:50:00,
2013-08-06 12:55:00,91.0,76.3,29.96,NW,315,2.0,4.0,62,0.00,,,0.01,meteohub,2013-08-06 16:55:00,
2013-08-06 13:00:00,91.4,77.0,29.96,NE,45,3.0,4.0,63,0.00,,,0.01,meteohub,2013-08-06 17:00:00,
2013-08-06 13:05:00,92.3,77.4,29.96,SW,225,1.0,3.0,62,0.00,,,0.01,meteohub,2013-08-06 17:05:00,
2013-08-06 13:10:00,93.0,77.0,29.96,NE,45,2.0,3.0,60,0.00,,,0.01,meteohub,2013-08-06 17:10:00,
2013-08-06 13:15:00,93.2,77.2,29.96,SW,225,2.0,3.0,60,0.00,,,0.01,meteohub,2013-08-06 17:15:00,
2013-08-06 13:20:00,93.2,76.6,29.96,East,90,3.0,3.0,59,0.00,,,0.01,meteohub,2013-08-06 17:20:00,
2013-08-06 13:25:00,93.2,77.7,29.96,NE,45,1.0,4.0,61,0.00,,,0.01,meteohub,2013-08-06 17:25:00,
2013-08-06 13:30:00,93.2,76.6,29.96,North,0,2.0,4.0,59,0.00,,,0.01,meteohub,2013-08-06 17:30:00,
2013-08-06 13:31:00,93.2,76.6,29.96,NW,315,1.0,4.0,59,0.00,,,0.01,meteohub,2013-08-06 17:31:00,
2013-08-06 13:36:00,93.7,76.3,29.96,East,90,2.0,3.0,57,0.00,,,0.01,meteohub,2013-08-06 17:36:00,
2013-08-06 13:41:00,93.7,75.7,29.95,South,180,2.0,3.0,56,0.00,,,0.01,meteohub,2013-08-06 17:41:00,
2013-08-06 13:47:00,93.4,75.4,29.95,SW,225,2.0,4.0,56,0.00,,,0.01,meteohub,2013-08-06 17:47:00,
2013-08-06 13:52:00,93.2,75.7,29.95,North,0,2.0,4.0,57,0.00,,,0.01,meteohub,2013-08-06 17:52:00,
2013-08-06 13:57:00,94.1,76.5,29.95,East,90,3.0,4.0,57,0.00,,,0.01,meteohub,2013-08-06 17:57:00,
2013-08-06 14:02:00,94.3,76.6,29.95,NE,45,2.0,3.0,57,0.00,,,0.01,meteohub,2013-08-06 18:02:00,
2013-08-06 14:07:00,93.9,75.7,29.95,NW,315,2.0,3.0,56,0.00,,,0.01,meteohub,2013-08-06 18:07:00,
2013-08-06 14:12:00,93.2,75.2,29.95,NE,45,1.0,3.0,56,0.00,,,0.01,meteohub,2013-08-06 18:12:00,
2013-08-06 14:17:00,93.0,76.1,29.94,West,270,4.0,4.0,58,0.00,,,0.01,meteohub,2013-08-06 18:17:00,
2013-08-06 14:22:00,92.8,75.4,29.94,SW,225,2.0,4.0,57,0.00,,,0.01,meteohub,2013-08-06 18:22:00,
2013-08-06 14:27:00,92.3,75.9,29.94,North,0,3.0,4.0,59,0.00,,,0.01,meteohub,2013-08-06 18:27:00,
2013-08-06 14:32:00,92.1,75.7,29.94,East,90,2.0,4.0,59,0.00,,,0.01,meteohub,2013-08-06 18:32:00,
2013-08-06 14:37:00,91.6,74.7,29.94,SSE,158,2.0,3.0,58,0.00,,,0.01,meteohub,2013-08-06 18:37:00,
2013-08-06 14:42:00,91.6,75.7,29.94,NE,45,2.0,3.0,60,0.00,,,0.01,meteohub,2013-08-06 18:42:00,
2013-08-06 14:47:00,92.3,77.4,29.94,East,90,2.0,3.0,62,0.00,,,0.01,meteohub,2013-08-06 18:47:00,
2013-08-06 14:52:00,93.4,75.9,29.94,SW,225,2.0,4.0,57,0.00,,,0.01,meteohub,2013-08-06 18:52:00,
2013-08-06 14:57:00,93.6,75.6,29.93,South,180,2.0,4.0,56,0.00,,,0.01,meteohub,2013-08-06 18:57:00,
2013-08-06 15:02:00,94.3,76.1,29.93,South,180,0.0,4.0,56,0.00,,,0.01,meteohub,2013-08-06 19:02:00,
2013-08-06 15:06:00,94.6,75.9,29.92,North,0,3.0,3.0,55,0.00,,,0.01,meteohub,2013-08-06 19:06:00,
2013-08-06 15:11:00,95.2,75.4,29.92,East,90,2.0,3.0,53,0.00,,,0.01,meteohub,2013-08-06 19:11:00,
2013-08-06 15:16:00,94.8,75.6,29.93,East,90,0.0,4.0,54,0.00,,,0.01,meteohub,2013-08-06 19:16:00,
2013-08-06 15:21:00,94.3,75.0,29.93,East,90,2.0,4.0,54,0.00,,,0.01,meteohub,2013-08-06 19:21:00,
2013-08-06 15:26:00,94.5,75.7,29.92,SW,225,3.0,4.0,55,0.00,,,0.01,meteohub,2013-08-06 19:26:00,
2013-08-06 15:32:00,93.9,74.7,29.92,SE,135,4.0,6.0,54,0.00,,,0.01,meteohub,2013-08-06 19:32:00,
2013-08-06 15:37:00,93.4,75.4,29.92,East,90,2.0,6.0,56,0.00,,,0.01,meteohub,2013-08-06 19:37:00,
2013-08-06 15:42:00,92.8,75.4,29.91,SW,225,4.0,6.0,57,0.00,,,0.01,meteohub,2013-08-06 19:42:00,
2013-08-06 15:47:00,92.3,74.3,29.91,South,180,0.0,4.0,56,0.00,,,0.01,meteohub,2013-08-06 19:47:00,
2013-08-06 15:52:00,92.3,74.8,29.91,SE,135,0.0,4.0,57,0.00,,,0.01,meteohub,2013-08-06 19:52:00,
2013-08-06 15:57:00,92.8,75.4,29.91,East,90,0.0,4.0,57,0.00,,,0.01,meteohub,2013-08-06 19:57:00,
2013-08-06 16:02:00,93.4,74.8,29.91,WNW,293,0.0,2.0,55,0.00,,,0.01,meteohub,2013-08-06 20:02:00,
2013-08-06 16:07:00,93.4,74.3,29.91,East,90,2.0,2.0,54,0.00,,,0.01,meteohub,2013-08-06 20:07:00,
2013-08-06 16:12:00,93.2,74.1,29.91,North,0,0.0,2.0,54,0.00,,,0.01,meteohub,2013-08-06 20:12:00,
2013-08-06 16:17:00,92.7,74.7,29.91,SE,135,2.0,3.0,56,0.00,,,0.01,meteohub,2013-08-06 20:17:00,
2013-08-06 16:22:00,91.8,74.8,29.92,SW,225,4.0,4.0,58,0.00,,,0.01,meteohub,2013-08-06 20:22:00,
2013-08-06 16:27:00,90.0,75.2,29.92,North,0,2.0,6.0,62,0.00,,,0.01,meteohub,2013-08-06 20:27:00,
2013-08-06 16:32:00,88.0,74.3,29.92,North,0,2.0,6.0,64,0.00,,,0.01,meteohub,2013-08-06 20:32:00,
2013-08-06 16:35:00,86.9,74.7,29.93,North,0,0.0,4.0,67,0.00,,,0.01,meteohub,2013-08-06 20:35:00,
2013-08-06 16:40:00,84.7,75.2,29.93,NW,315,4.0,4.0,73,0.01,,,0.02,meteohub,2013-08-06 20:40:00,
2013-08-06 16:45:00,82.2,75.0,29.93,North,0,2.0,4.0,79,0.02,,,0.04,meteohub,2013-08-06 20:45:00,
2013-08-06 16:50:00,80.2,74.7,29.94,North,0,5.0,5.0,83,0.02,,,0.04,meteohub,2013-08-06 20:50:00,
2013-08-06 16:55:00,79.3,74.5,29.94,West,270,1.0,5.0,85,0.02,,,0.04,meteohub,2013-08-06 20:55:00,
2013-08-06 17:00:00,78.8,73.9,29.94,NW,315,2.0,5.0,85,0.02,,,0.04,meteohub,2013-08-06 21:00:00,
2013-08-06 17:05:00,78.3,74.1,29.94,North,0,1.0,5.0,87,0.02,,,0.04,meteohub,2013-08-06 21:05:00,
2013-08-06 17:10:00,78.1,74.3,29.94,West,270,0.0,3.0,88,0.02,,,0.04,meteohub,2013-08-06 21:10:00,
2013-08-06 17:16:00,77.9,74.1,29.94,NNE,23,0.0,3.0,88,0.02,,,0.04,meteohub,2013-08-06 21:16:00,
2013-08-06 17:21:00,77.9,74.5,29.93,North,0,2.0,2.0,89,0.02,,,0.04,meteohub,2013-08-06 21:21:00,
2013-08-06 17:26:00,78.1,74.5,29.93,North,0,2.0,2.0,89,0.02,,,0.04,meteohub,2013-08-06 21:26:00,
2013-08-06 17:31:00,78.1,74.8,29.93,West,270,0.0,2.0,90,0.02,,,0.04,meteohub,2013-08-06 21:31:00,
2013-08-06 17:36:00,78.4,75.2,29.93,North,0,0.0,2.0,90,0.01,,,0.04,meteohub,2013-08-06 21:36:00,
2013-08-06 17:41:00,78.4,75.6,29.92,North,0,0.0,2.0,91,0.01,,,0.04,meteohub,2013-08-06 21:41:00,
2013-08-06 17:46:00,78.6,75.7,29.91,North,0,0.0,2.0,91,0.00,,,0.04,meteohub,2013-08-06 21:46:00,
2013-08-06 17:51:00,79.0,75.4,29.91,North,0,0.0,0.0,89,0.00,,,0.04,meteohub,2013-08-06 21:51:00,
2013-08-06 17:56:00,79.5,75.9,29.91,North,0,0.0,0.0,89,0.00,,,0.04,meteohub,2013-08-06 21:56:00,
2013-08-06 18:01:00,80.2,77.0,29.92,North,0,0.0,0.0,90,0.00,,,0.04,meteohub,2013-08-06 22:01:00,
2013-08-06 18:06:00,81.1,77.5,29.92,North,0,0.0,0.0,89,0.00,,,0.04,meteohub,2013-08-06 22:06:00,
2013-08-06 18:11:00,81.9,77.5,29.92,East,90,0.0,0.0,87,0.00,,,0.04,meteohub,2013-08-06 22:11:00,
2013-08-06 18:16:00,82.2,77.2,29.92,East,90,0.0,0.0,85,0.00,,,0.04,meteohub,2013-08-06 22:16:00,
2013-08-06 18:21:00,82.2,76.8,29.93,North,0,0.0,0.0,84,0.00,,,0.04,meteohub,2013-08-06 22:21:00,
2013-08-06 18:26:00,82.4,77.4,29.93,North,0,0.0,0.0,85,0.00,,,0.04,meteohub,2013-08-06 22:26:00,
2013-08-06 18:31:00,82.4,77.4,29.94,NW,315,0.0,0.0,85,0.00,,,0.04,meteohub,2013-08-06 22:31:00,
2013-08-06 18:36:00,82.6,77.5,29.94,North,0,0.0,0.0,85,0.00,,,0.04,meteohub,2013-08-06 22:36:00,
2013-08-06 18:41:00,82.9,77.5,29.94,NE,45,0.0,0.0,84,0.00,,,0.04,meteohub,2013-08-06 22:41:00,
2013-08-06 18:46:00,83.3,77.5,29.94,East,90,0.0,0.0,83,0.00,,,0.04,meteohub,2013-08-06 22:46:00,
2013-08-06 18:51:00,83.5,78.1,29.94,North,0,0.0,2.0,84,0.00,,,0.04,meteohub,2013-08-06 22:51:00,
2013-08-06 18:57:00,83.7,77.9,29.94,North,0,0.0,2.0,83,0.00,,,0.04,meteohub,2013-08-06 22:57:00,
2013-08-06 19:02:00,83.5,77.7,29.94,NW,315,0.0,2.0,83,0.00,,,0.04,meteohub,2013-08-06 23:02:00,
2013-08-06 19:07:00,83.1,77.4,29.94,NW,315,0.0,1.0,83,0.00,,,0.04,meteohub,2013-08-06 23:07:00,
2013-08-06 19:12:00,82.8,76.6,29.94,NW,315,0.0,1.0,82,0.00,,,0.04,meteohub,2013-08-06 23:12:00,
2013-08-06 19:17:00,82.4,76.6,29.94,NW,315,0.0,0.0,83,0.00,,,0.04,meteohub,2013-08-06 23:17:00,
2013-08-06 19:22:00,81.9,76.1,29.94,NW,315,0.0,0.0,83,0.00,,,0.04,meteohub,2013-08-06 23:22:00,
2013-08-06 19:27:00,81.5,76.3,29.95,NW,315,0.0,0.0,84,0.00,,,0.04,meteohub,2013-08-06 23:27:00,
2013-08-06 19:32:00,81.3,76.1,29.94,NW,315,0.0,0.0,84,0.00,,,0.04,meteohub,2013-08-06 23:32:00,
2013-08-06 19:37:00,81.0,76.1,29.94,NE,45,0.0,0.0,85,0.00,,,0.04,meteohub,2013-08-06 23:37:00,
2013-08-06 19:42:00,81.0,76.1,29.94,NE,45,0.0,0.0,85,0.00,,,0.04,meteohub,2013-08-06 23:42:00,
2013-08-06 19:47:00,81.0,76.5,29.94,NE,45,0.0,0.0,86,0.00,,,0.04,meteohub,2013-08-06 23:47:00,
2013-08-06 19:52:00,81.0,76.5,29.94,NE,45,0.0,0.0,86,0.00,,,0.04,meteohub,2013-08-06 23:52:00,
2013-08-06 19:57:00,81.0,76.5,29.95,NE,45,0.0,0.0,86,0.00,,,0.04,meteohub,2013-08-06 23:57:00,
2013-08-06 20:02:00,81.0,76.6,29.95,NE,45,0.0,0.0,87,0.00,,,0.04,meteohub,2013-08-07 00:02:00,
2013-08-06 20:07:00,81.0,76.6,29.95,North,0,0.0,0.0,87,0.00,,,0.04,meteohub,2013-08-07 00:07:00,
2013-08-06 20:12:00,81.0,76.6,29.94,NE,45,0.0,0.0,87,0.00,,,0.04,meteohub,2013-08-07 00:12:00,
2013-08-06 20:17:00,81.0,76.6,29.95,East,90,0.0,0.0,87,0.00,,,0.04,meteohub,2013-08-07 00:17:00,
2013-08-06 20:22:00,81.1,76.8,29.95,NE,45,0.0,0.0,87,0.00,,,0.04,meteohub,2013-08-07 00:22:00,
2013-08-06 20:27:00,81.1,76.8,29.95,NE,45,0.0,2.0,87,0.00,,,0.04,meteohub,2013-08-07 00:27:00,
2013-08-06 20:32:00,81.1,76.5,29.94,NE,45,0.0,2.0,86,0.00,,,0.04,meteohub,2013-08-07 00:32:00,
2013-08-06 20:37:00,81.3,76.6,29.95,NE,45,0.0,2.0,86,0.00,,,0.04,meteohub,2013-08-07 00:37:00,
2013-08-06 20:42:00,81.3,76.6,29.95,NE,45,0.0,1.0,86,0.00,,,0.04,meteohub,2013-08-07 00:42:00,
2013-08-06 20:47:00,81.3,76.6,29.95,North,0,0.0,0.0,86,0.00,,,0.04,meteohub,2013-08-07 00:47:00,
2013-08-06 20:52:00,81.3,76.6,29.95,NE,45,0.0,0.0,86,0.00,,,0.04,meteohub,2013-08-07 00:52:00,
2013-08-06 20:57:00,81.3,76.6,29.96,East,90,0.0,4.0,86,0.00,,,0.04,meteohub,2013-08-07 00:57:00,
2013-08-06 21:00:00,81.3,76.5,29.96,East,90,0.0,4.0,85,0.00,,,0.04,meteohub,2013-08-07 01:00:00,
2013-08-06 21:05:00,81.5,76.5,29.96,East,90,0.0,4.0,85,0.00,,,0.04,meteohub,2013-08-07 01:05:00,
2013-08-06 21:10:00,81.5,76.5,29.96,SE,135,0.0,2.0,85,0.00,,,0.04,meteohub,2013-08-07 01:10:00,
2013-08-06 21:15:00,81.5,76.3,29.96,East,90,1.0,2.0,84,0.00,,,0.04,meteohub,2013-08-07 01:15:00,
2013-08-06 21:20:00,81.5,76.3,29.96,NW,315,1.0,3.0,84,0.00,,,0.04,meteohub,2013-08-07 01:20:00,
2013-08-06 21:25:00,81.7,76.6,29.96,East,90,2.0,3.0,85,0.00,,,0.04,meteohub,2013-08-07 01:25:00,
2013-08-06 21:30:00,81.7,76.6,29.96,South,180,1.0,3.0,85,0.00,,,0.04,meteohub,2013-08-07 01:30:00,
2013-08-06 21:35:00,81.5,76.5,29.97,SW,225,1.0,3.0,85,0.00,,,0.04,meteohub,2013-08-07 01:35:00,
2013-08-06 21:40:00,81.5,76.5,29.97,East,90,1.0,2.0,85,0.00,,,0.04,meteohub,2013-08-07 01:40:00,
2013-08-06 21:45:00,81.5,76.8,29.97,NW,315,0.0,2.0,86,0.00,,,0.04,meteohub,2013-08-07 01:45:00,
2013-08-06 21:50:00,81.3,76.6,29.97,East,90,0.0,2.0,86,0.00,,,0.04,meteohub,2013-08-07 01:50:00,
2013-08-06 21:55:00,81.3,76.6,29.97,East,90,0.0,2.0,86,0.00,,,0.04,meteohub,2013-08-07 01:55:00,
2013-08-06 22:00:00,81.3,77.0,29.97,East,90,2.0,2.0,87,0.00,,,0.04,meteohub,2013-08-07 02:00:00,
2013-08-06 22:05:00,81.1,76.8,29.97,East,90,2.0,2.0,87,0.00,,,0.04,meteohub,2013-08-07 02:05:00,
2013-08-06 22:11:00,81.1,76.8,29.97,South,180,0.0,2.0,87,0.00,,,0.04,meteohub,2013-08-07 02:11:00,
2013-08-06 22:16:00,81.1,76.8,29.97,East,90,0.0,2.0,87,0.00,,,0.04,meteohub,2013-08-07 02:16:00,
2013-08-06 22:21:00,81.0,77.0,29.97,East,90,0.0,2.0,88,0.00,,,0.04,meteohub,2013-08-07 02:21:00,
2013-08-06 22:26:00,81.0,77.0,29.97,NE,45,0.0,0.0,88,0.00,,,0.04,meteohub,2013-08-07 02:26:00,
2013-08-06 22:31:00,80.8,76.8,29.97,NE,45,0.0,0.0,88,0.00,,,0.04,meteohub,2013-08-07 02:31:00,
2013-08-06 22:36:00,80.6,76.6,29.97,North,0,0.0,0.0,88,0.00,,,0.04,meteohub,2013-08-07 02:36:00,
2013-08-06 22:41:00,80.4,76.8,29.98,North,0,0.0,0.0,89,0.00,,,0.04,meteohub,2013-08-07 02:41:00,
2013-08-06 22:46:00,80.2,77.0,29.98,SW,225,0.0,0.0,90,0.00,,,0.04,meteohub,2013-08-07 02:46:00,
2013-08-06 22:51:00,80.2,77.0,29.98,SW,225,0.0,0.0,90,0.00,,,0.04,meteohub,2013-08-07 02:51:00,
2013-08-06 22:56:00,80.1,76.8,29.98,SW,225,0.0,0.0,90,0.00,,,0.04,meteohub,2013-08-07 02:56:00,
2013-08-06 23:01:00,79.9,76.6,29.99,SW,225,0.0,0.0,90,0.00,,,0.04,meteohub,2013-08-07 03:01:00,
2013-08-06 23:06:00,79.9,77.0,29.99,NE,45,0.0,0.0,91,0.00,,,0.04,meteohub,2013-08-07 03:06:00,
2013-08-06 23:11:00,79.7,76.8,29.99,NE,45,0.0,0.0,91,0.00,,,0.04,meteohub,2013-08-07 03:11:00,
2013-08-06 23:16:00,79.5,76.6,29.99,NE,45,0.0,0.0,91,0.00,,,0.04,meteohub,2013-08-07 03:16:00,
2013-08-06 23:21:00,79.5,76.6,29.99,NE,45,0.0,0.0,91,0.00,,,0.04,meteohub,2013-08-07 03:21:00,
2013-08-06 23:26:00,79.3,76.8,29.99,NE,45,0.0,0.0,92,0.00,,,0.04,meteohub,2013-08-07 03:26:00,
2013-08-06 23:31:00,79.3,76.8,29.99,NE,45,0.0,0.0,92,0.00,,,0.04,meteohub,2013-08-07 03:31:00,
2013-08-06 23:36:00,79.2,76.6,29.98,NE,45,0.0,0.0,92,0.00,,,0.04,meteohub,2013-08-07 03:36:00,
2013-08-06 23:41:00,79.2,76.6,29.98,NE,45,0.0,0.0,92,0.00,,,0.04,meteohub,2013-08-07 03:41:00,
2013-08-06 23:46:00,79.0,76.5,29.98,NE,45,0.0,0.0,92,0.00,,,0.04,meteohub,2013-08-07 03:46:00,
2013-08-06 23:51:00,79.0,76.5,29.98,NE,45,0.0,0.0,92,0.00,,,0.04,meteohub,2013-08-07 03:51:00,
2013-08-06 23:57:00,79.0,76.8,29.98,NE,45,0.0,0.0,93,0.00,,,0.04,meteohub,2013-08-07 03:57:00,